Papere Vagabonde

Aviosuperficie Caposile LIKI

Pista 04


Pista 22

Le immagini vengono aggiornate ogni minuto
Cliccare sull'immagine per l'ingrandimento.

METAR LIPZ

LIPZ 040720Z 05018KT 7000 -RA BKN020 BKN040 08/07 Q1011 NOSIG

TAF LIPZ 040500Z 0406/0512 04010KT 9999 SCT030 BKN040
  TEMPO 0406/0416 04010G20KT SHRA
  BECMG 0416/0418 VRB05KT
  TEMPO 0420/0502 2000 BR
  BECMG 0502/0504 04010KT
  TEMPO 0503/0510 RA


      

Alba: 07:32
Tramonto: 16:26

LOW LEVEL SIGWX CHART

ALL WEATHER DATA